AerodromSadržaj METAR izveštaja
LYBEMETAR LYBE 091630Z 05006KT 020V080 CAVOK 28/13 Q1018 NOSIG=
LYBTMETAR LYBT 091630Z 06005KT 030V100 CAVOK 28/13 Q1017 NOSIG=
LYKVMETAR LYKV 091630Z 06004KT 010V100 CAVOK 28/12 Q1018 NOSIG=
LYNIMETAR LYNI 091630Z 32008KT CAVOK 27/13 Q1017 NOSIG=
LYVRMETAR LYVR 091630Z AUTO 05004KT CAVOK 29/15 Q1018=
LYUZMETAR LYUZ 091630Z 07005KT 040V100 CAVOK 22/12 Q1022=
LYPGMETAR LYPG 091630Z 17005KT 150V240 CAVOK 34/04 Q1013 NOSIG=
LYTVMETAR LYTV 091630Z VRB02KT CAVOK 29/12 Q1014 NOSIG=

Podaci učitani u: 2020-07-09 16:33:21 UTC

METAR, TAF, AIRMET, GAMET, SIGMET

Važna napomena: MET infоrmаciје nа оvim web strаnicаmа imајu infоrmаtivni kаrаktеr, nаmenjene su isključivo vаzduhоplоvnim kоrisnicima, nе smејu sе kоristiti zа bilо kоје kоmеrciјаlnе svrhе, i nе zаmеnjuјu dоkumеntаciјu zа lеt.